Time;durP1;ratioP1;P1;durP2;ratioP2;P2;SDS_P1;SDS_P2;PMS_P1;PMS_P2;Temp;Humidity;BMP_temperature;BMP_pressure;BME280_temperature;BME280_humidity;BME280_pressure;Samples;Min_cycle;Max_cycle;Signal;HPM_P1;HPM_P2
2023/08/20 00:00:41;;;;;;;;;;;;;;;;;;4904011;28;120872;-83
2023/08/20 00:03:07;;;;;;;;;;;;;;;;;;4891910;28;121697;-83
2023/08/20 00:05:34;;;;;;;;;;;;;;;;;;4896317;28;106756;-83
2023/08/20 00:08:01;;;;;;;;;;;;;;;;;;4899224;28;120534;-83
2023/08/20 00:10:27;;;;;;;;;;;;;;;;;;4900746;28;122705;-83
2023/08/20 00:12:54;;;;;;;;;;;;;;;;;;4884371;28;114796;-83
2023/08/20 00:15:22;;;;;;;;;;;;;;;;;;4901159;28;121081;-83
2023/08/20 00:17:48;;;;;;;;;;;;;;;;;;4900558;28;112580;-83
2023/08/20 00:20:16;;;;;;;;;;;;;;;;;;4917872;28;121111;-83
2023/08/20 00:22:44;;;;;;;;;;;;;;;;;;4902980;28;120243;-83
2023/08/20 00:25:11;;;;;;;;;;;;;;;;;;4918468;28;92893;-83
2023/08/20 00:27:37;;;;;;;;;;;;;;;;;;4909902;28;119934;-83
2023/08/20 00:30:04;;;;;;;;;;;;;;;;;;4910070;28;115347;-83
2023/08/20 00:32:30;;;;;;;;;;;;;;;;;;4915663;28;94894;-83
2023/08/20 00:34:57;;;;;;;;;;;;;;;;;;4871770;28;118418;-82
2023/08/20 00:37:23;;;;;;;;;;;;;;;;;;4897383;28;122517;-83
2023/08/20 00:39:49;;;;;;;;;;;;;;;;;;4892811;28;92614;-83
2023/08/20 00:42:16;;;;;;;;;;;;;;;;;;4897309;28;92291;-83
2023/08/20 00:44:46;;;;;;;;;;;;;;;;;;4898723;28;93153;-83
2023/08/20 00:47:12;;;;;;;;;;;;;;;;;;4898724;28;120836;-82
2023/08/20 00:49:39;;;;;;;;;;;;;;;;;;4892810;28;110146;-83
2023/08/20 00:52:05;;;;;;;;;;;;;;;;;;4916526;28;121088;-83
2023/08/20 00:54:31;;;;;;;;;;;;;;;;;;4892899;28;105346;-84
2023/08/20 00:56:58;;;;;;;;;;;;;;;;;;4884922;28;95837;-83
2023/08/20 00:59:24;;;;;;;;;;;;;;;;;;4910876;28;122915;-83
2023/08/20 01:01:51;;;;;;;;;;;;;;;;;;4883081;28;122344;-83
2023/08/20 01:04:17;;;;;;;;;;;;;;;;;;4903722;28;92257;-83
2023/08/20 01:06:44;;;;;;;;;;;;;;;;;;4879966;28;121321;-84
2023/08/20 01:09:11;;;;;;;;;;;;;;;;;;4903611;28;92230;-84
2023/08/20 01:11:38;;;;;;;;;;;;;;;;;;4921268;28;101079;-84
2023/08/20 01:14:04;;;;;;;;;;;;;;;;;;4907718;28;93713;-84
2023/08/20 01:16:31;;;;;;;;;;;;;;;;;;4923297;28;121655;-84
2023/08/20 01:18:57;;;;;;;;;;;;;;;;;;4900824;28;93394;-84
2023/08/20 01:21:24;;;;;;;;;;;;;;;;;;4904727;28;99870;-84
2023/08/20 01:23:50;;;;;;;;;;;;;;;;;;4919552;28;122724;-84
2023/08/20 01:26:17;;;;;;;;;;;;;;;;;;4891370;28;93220;-84
2023/08/20 01:28:43;;;;;;;;;;;;;;;;;;4898672;28;121190;-84
2023/08/20 01:31:09;;;;;;;;;;;;;;;;;;4891677;28;122384;-84
2023/08/20 01:33:36;;;;;;;;;;;;;;;;;;4922170;28;102268;-84
2023/08/20 01:36:09;;;;;;;;;;;;;;;;;;4882475;28;122629;-83
2023/08/20 01:38:35;;;;;;;;;;;;;;;;;;4917065;28;119177;-83
2023/08/20 01:41:02;;;;;;;;;;;;;;;;;;4907950;28;92297;-83
2023/08/20 01:43:28;;;;;;;;;;;;;;;;;;4904131;28;124376;-84
2023/08/20 01:45:55;;;;;;;;;;;;;;;;;;4923097;28;122746;-84
2023/08/20 01:48:22;;;;;;;;;;;;;;;;;;4893739;28;126067;-84
2023/08/20 01:50:49;;;;;;;;;;;;;;;;;;4899001;28;92374;-83
2023/08/20 01:53:15;;;;;;;;;;;;;;;;;;4903852;28;123021;-83
2023/08/20 01:55:42;;;;;;;;;;;;;;;;;;4901983;28;124362;-83
2023/08/20 01:58:08;;;;;;;;;;;;;;;;;;4901932;28;121738;-83
2023/08/20 02:00:35;;;;;;;;;;;;;;;;;;4896924;28;94170;-83
2023/08/20 02:03:02;;;;;;;;;;;;;;;;;;4902277;28;122019;-84
2023/08/20 02:05:28;;;;;;;;;;;;;;;;;;4890742;28;121148;-83
2023/08/20 02:07:55;;;;;;;;;;;;;;;;;;4899265;28;93964;-83
2023/08/20 02:10:21;;;;;;;;;;;;;;;;;;4913988;28;102134;-84
2023/08/20 02:12:47;;;;;;;;;;;;;;;;;;4893878;28;124920;-83
2023/08/20 02:15:15;;;;;;;;;;;;;;;;;;4902688;28;93665;-83
2023/08/20 02:17:41;;;;;;;;;;;;;;;;;;4918833;28;122364;-83
2023/08/20 02:20:10;;;;;;;;;;;;;;;;;;4919907;28;92467;-83
2023/08/20 02:22:36;;;;;;;;;;;;;;;;;;4887851;28;122646;-83
2023/08/20 02:25:03;;;;;;;;;;;;;;;;;;4891376;28;118452;-83
2023/08/20 02:27:29;;;;;;;;;;;;;;;;;;4879329;28;122041;-83
2023/08/20 02:29:55;;;;;;;;;;;;;;;;;;4890109;28;120588;-83
2023/08/20 02:32:22;;;;;;;;;;;;;;;;;;4918390;28;92527;-83
2023/08/20 02:34:49;;;;;;;;;;;;;;;;;;4900763;28;94964;-83
2023/08/20 02:37:16;;;;;;;;;;;;;;;;;;4918206;28;119667;-83
2023/08/20 02:39:43;;;;;;;;;;;;;;;;;;4896656;28;94555;-84
2023/08/20 02:42:09;;;;;;;;;;;;;;;;;;4921309;28;104879;-84
2023/08/20 02:44:35;;;;;;;;;;;;;;;;;;4904921;28;122433;-84
2023/08/20 02:47:02;;;;;;;;;;;;;;;;;;4894184;28;119917;-84
2023/08/20 02:49:28;;;;;;;;;;;;;;;;;;4902113;28;92418;-84
2023/08/20 02:51:55;;;;;;;;;;;;;;;;;;4896481;28;122368;-84
2023/08/20 02:54:21;;;;;;;;;;;;;;;;;;4894016;28;120381;-83
2023/08/20 02:56:47;;;;;;;;;;;;;;;;;;4889239;28;119984;-84
2023/08/20 02:59:14;;;;;;;;;;;;;;;;;;4895367;28;120710;-84
2023/08/20 03:01:40;;;;;;;;;;;;;;;;;;4892045;28;95210;-83
2023/08/20 03:04:07;;;;;;;;;;;;;;;;;;4900131;28;120151;-84
2023/08/20 03:06:33;;;;;;;;;;;;;;;;;;4902645;28;92310;-83
2023/08/20 03:09:00;;;;;;;;;;;;;;;;;;4884844;28;118274;-83
2023/08/20 03:11:26;;;;;;;;;;;;;;;;;;4900357;28;113298;-84
2023/08/20 03:13:53;;;;;;;;;;;;;;;;;;4901374;28;120714;-84
2023/08/20 03:16:19;;;;;;;;;;;;;;;;;;4905363;28;121942;-84
2023/08/20 03:18:46;;;;;;;;;;;;;;;;;;4900514;28;92642;-84
2023/08/20 03:21:12;;;;;;;;;;;;;;;;;;4899415;28;123119;-84
2023/08/20 03:23:38;;;;;;;;;;;;;;;;;;4884342;28;119011;-84
2023/08/20 03:26:05;;;;;;;;;;;;;;;;;;4895215;28;121011;-84
2023/08/20 03:28:31;;;;;;;;;;;;;;;;;;4897964;28;92512;-83
2023/08/20 03:30:58;;;;;;;;;;;;;;;;;;4896178;28;123037;-83
2023/08/20 03:33:26;;;;;;;;;;;;;;;;;;4897955;28;92898;-83
2023/08/20 03:35:52;;;;;;;;;;;;;;;;;;4897419;28;94750;-83
2023/08/20 03:38:19;;;;;;;;;;;;;;;;;;4895811;28;93331;-83
2023/08/20 03:40:45;;;;;;;;;;;;;;;;;;4899905;28;91942;-83
2023/08/20 03:43:11;;;;;;;;;;;;;;;;;;4890594;28;123004;-83
2023/08/20 03:45:38;;;;;;;;;;;;;;;;;;4890738;28;98184;-83
2023/08/20 03:48:04;;;;;;;;;;;;;;;;;;4896424;28;96722;-83
2023/08/20 03:50:32;;;;;;;;;;;;;;;;;;4882468;28;113681;-83
2023/08/20 03:52:59;;;;;;;;;;;;;;;;;;4888978;28;95638;-84
2023/08/20 03:55:26;;;;;;;;;;;;;;;;;;4892333;28;95433;-83
2023/08/20 03:57:52;;;;;;;;;;;;;;;;;;4902620;28;93544;-84
2023/08/20 04:00:18;;;;;;;;;;;;;;;;;;4896713;28;121505;-83
2023/08/20 04:02:45;;;;;;;;;;;;;;;;;;4887426;28;123093;-84
2023/08/20 04:05:12;;;;;;;;;;;;;;;;;;4891860;28;94195;-84
2023/08/20 04:07:38;;;;;;;;;;;;;;;;;;4897698;28;123668;-84
2023/08/20 04:10:05;;;;;;;;;;;;;;;;;;4890347;28;122405;-84
2023/08/20 04:12:31;;;;;;;;;;;;;;;;;;4898717;28;94767;-84
2023/08/20 04:14:58;;;;;;;;;;;;;;;;;;4897532;28;123365;-84
2023/08/20 04:17:24;;;;;;;;;;;;;;;;;;4895621;28;122070;-84
2023/08/20 04:19:51;;;;;;;;;;;;;;;;;;4903018;28;92336;-84
2023/08/20 04:22:17;;;;;;;;;;;;;;;;;;4888433;28;122235;-84
2023/08/20 04:24:44;;;;;;;;;;;;;;;;;;4905446;28;92674;-84
2023/08/20 04:27:10;;;;;;;;;;;;;;;;;;4884458;28;95538;-84
2023/08/20 04:29:40;;;;;;;;;;;;;;;;;;4905263;28;94971;-84
2023/08/20 04:32:06;;;;;;;;;;;;;;;;;;4904064;28;92760;-84
2023/08/20 04:34:33;;;;;;;;;;;;;;;;;;4903137;28;94725;-84
2023/08/20 04:36:59;;;;;;;;;;;;;;;;;;4901995;28;95013;-84
2023/08/20 04:39:26;;;;;;;;;;;;;;;;;;4892027;28;94209;-84
2023/08/20 04:41:53;;;;;;;;;;;;;;;;;;4889260;28;94445;-84
2023/08/20 04:44:20;;;;;;;;;;;;;;;;;;4902313;28;91963;-84
2023/08/20 04:46:48;;;;;;;;;;;;;;;;;;4904409;28;94127;-84
2023/08/20 04:49:16;;;;;;;;;;;;;;;;;;4907032;28;94391;-84
2023/08/20 04:51:42;;;;;;;;;;;;;;;;;;4898946;28;94977;-84
2023/08/20 04:54:09;;;;;;;;;;;;;;;;;;4897461;28;121545;-84
2023/08/20 04:56:35;;;;;;;;;;;;;;;;;;4905114;28;123420;-84
2023/08/20 04:59:01;;;;;;;;;;;;;;;;;;4905125;28;120632;-84
2023/08/20 05:01:57;;;;;;;;;;;;;;;;;;4905734;28;94723;-84
2023/08/20 05:04:36;;;;;;;;;;;;;;;;;;4895043;28;94090;-84
2023/08/20 05:07:03;;;;;;;;;;;;;;;;;;4897492;28;95565;-84
2023/08/20 05:09:29;;;;;;;;;;;;;;;;;;4889356;28;120363;-84
2023/08/20 05:11:56;;;;;;;;;;;;;;;;;;4892773;28;95012;-83
2023/08/20 05:14:22;;;;;;;;;;;;;;;;;;4894878;28;120519;-83
2023/08/20 05:16:49;;;;;;;;;;;;;;;;;;4900286;28;95186;-84
2023/08/20 05:19:16;;;;;;;;;;;;;;;;;;4898829;28;94899;-84
2023/08/20 05:21:43;;;;;;;;;;;;;;;;;;4901755;28;94353;-83
2023/08/20 05:24:09;;;;;;;;;;;;;;;;;;4923606;28;94394;-83
2023/08/20 05:26:36;;;;;;;;;;;;;;;;;;4883821;28;119148;-84
2023/08/20 05:29:03;;;;;;;;;;;;;;;;;;4906622;28;109566;-84
2023/08/20 05:31:29;;;;;;;;;;;;;;;;;;4902004;28;95091;-84
2023/08/20 05:33:55;;;;;;;;;;;;;;;;;;4902354;28;97975;-84
2023/08/20 05:36:22;;;;;;;;;;;;;;;;;;4894796;28;95429;-84
2023/08/20 05:38:49;;;;;;;;;;;;;;;;;;4896524;28;92102;-84
2023/08/20 05:41:15;;;;;;;;;;;;;;;;;;4904732;28;92440;-83
2023/08/20 05:43:42;;;;;;;;;;;;;;;;;;4909620;28;112204;-84
2023/08/20 05:46:08;;;;;;;;;;;;;;;;;;4891699;28;120092;-84
2023/08/20 05:48:35;;;;;;;;;;;;;;;;;;4889004;28;114382;-84
2023/08/20 05:51:01;;;;;;;;;;;;;;;;;;4890595;28;94153;-83
2023/08/20 05:53:28;;;;;;;;;;;;;;;;;;4893873;28;92435;-83
2023/08/20 05:55:55;;;;;;;;;;;;;;;;;;4921285;28;92294;-83
2023/08/20 05:58:21;;;;;;;;;;;;;;;;;;4890851;28;122239;-83
2023/08/20 06:00:48;;;;;;;;;;;;;;;;;;4906609;28;104709;-83
2023/08/20 06:03:14;;;;;;;;;;;;;;;;;;4889908;28;98572;-83
2023/08/20 06:05:41;;;;;;;;;;;;;;;;;;4911950;28;116873;-84
2023/08/20 06:08:07;;;;;;;;;;;;;;;;;;4908389;28;120728;-83
2023/08/20 06:10:34;;;;;;;;;;;;;;;;;;4926829;28;119899;-83
2023/08/20 06:13:00;;;;;;;;;;;;;;;;;;4911514;28;112291;-84
2023/08/20 06:15:26;;;;;;;;;;;;;;;;;;4918730;28;94715;-84
2023/08/20 06:17:53;;;;;;;;;;;;;;;;;;4902180;28;123691;-83
2023/08/20 06:20:19;;;;;;;;;;;;;;;;;;4921200;28;115261;-83
2023/08/20 06:22:46;;;;;;;;;;;;;;;;;;4904893;28;107278;-84
2023/08/20 06:25:12;;;;;;;;;;;;;;;;;;4923118;28;120257;-83
2023/08/20 06:27:39;;;;;;;;;;;;;;;;;;4900965;28;121417;-83
2023/08/20 06:30:05;;;;;;;;;;;;;;;;;;4898820;28;122611;-83
2023/08/20 06:32:32;;;;;;;;;;;;;;;;;;4902540;28;108879;-84
2023/08/20 06:34:58;;;;;;;;;;;;;;;;;;4893973;28;123691;-84
2023/08/20 06:37:25;;;;;;;;;;;;;;;;;;4906834;28;94087;-84
2023/08/20 06:39:51;;;;;;;;;;;;;;;;;;4892530;28;122909;-84
2023/08/20 06:42:17;;;;;;;;;;;;;;;;;;4894307;28;122619;-84
2023/08/20 06:44:44;;;;;;;;;;;;;;;;;;4922246;28;96398;-84
2023/08/20 06:47:10;;;;;;;;;;;;;;;;;;4920523;28;121424;-84
2023/08/20 06:49:37;;;;;;;;;;;;;;;;;;4924232;28;104355;-83
2023/08/20 06:52:03;;;;;;;;;;;;;;;;;;4927778;28;91872;-84
2023/08/20 06:54:30;;;;;;;;;;;;;;;;;;4906856;28;92003;-84
2023/08/20 06:56:56;;;;;;;;;;;;;;;;;;4924877;28;92078;-83
2023/08/20 06:59:23;;;;;;;;;;;;;;;;;;4889873;28;121437;-84
2023/08/20 07:01:49;;;;;;;;;;;;;;;;;;4916200;28;98230;-83
2023/08/20 07:04:16;;;;;;;;;;;;;;;;;;4920555;28;121785;-83
2023/08/20 07:06:42;;;;;;;;;;;;;;;;;;4924086;28;121451;-84
2023/08/20 07:09:09;;;;;;;;;;;;;;;;;;4900764;28;121038;-84
2023/08/20 07:11:35;;;;;;;;;;;;;;;;;;4922260;28;117583;-84
2023/08/20 07:14:02;;;;;;;;;;;;;;;;;;4902043;28;121765;-83
2023/08/20 07:16:29;;;;;;;;;;;;;;;;;;4888772;28;95701;-84
2023/08/20 07:18:55;;;;;;;;;;;;;;;;;;4922735;28;113261;-84
2023/08/20 07:21:22;;;;;;;;;;;;;;;;;;4921928;28;117840;-83
2023/08/20 07:23:49;;;;;;;;;;;;;;;;;;4904381;28;93332;-84
2023/08/20 07:26:15;;;;;;;;;;;;;;;;;;4907072;28;93521;-83
2023/08/20 07:28:57;;;;;;;;;;;;;;;;;;4902620;28;120902;-83
2023/08/20 07:31:24;;;;;;;;;;;;;;;;;;4883965;28;101871;-83
2023/08/20 07:33:50;;;;;;;;;;;;;;;;;;4926871;28;119665;-84
2023/08/20 07:36:18;;;;;;;;;;;;;;;;;;4910351;28;92091;-84
2023/08/20 07:38:44;;;;;;;;;;;;;;;;;;4898985;28;96003;-83
2023/08/20 07:41:13;;;;;;;;;;;;;;;;;;4917110;28;120730;-83
2023/08/20 07:43:40;;;;;;;;;;;;;;;;;;4918375;28;92384;-82
2023/08/20 07:46:06;;;;;;;;;;;;;;;;;;4918046;28;120904;-83
2023/08/20 07:48:33;;;;;;;;;;;;;;;;;;4917076;28;122379;-82
2023/08/20 07:51:00;;;;;;;;;;;;;;;;;;4912336;28;110831;-83
2023/08/20 07:53:26;;;;;;;;;;;;;;;;;;4883892;28;124071;-83
2023/08/20 07:55:53;;;;;;;;;;;;;;;;;;4921919;28;93420;-83
2023/08/20 07:58:19;;;;;;;;;;;;;;;;;;4923744;28;120759;-83
2023/08/20 08:00:45;;;;;;;;;;;;;;;;;;4900067;28;121517;-83
2023/08/20 08:03:14;;;;;;;;;;;;;;;;;;4916848;28;117244;-82
2023/08/20 08:05:41;;;;;;;;;;;;;;;;;;4898692;28;92941;-82
2023/08/20 08:08:08;;;;;;;;;;;;;;;;;;4908821;28;122957;-82
2023/08/20 08:10:34;;;;;;;;;;;;;;;;;;4911449;28;97524;-83
2023/08/20 08:13:01;;;;;;;;;;;;;;;;;;4894074;28;119728;-83
2023/08/20 08:15:27;;;;;;;;;;;;;;;;;;4896281;28;118663;-83
2023/08/20 08:17:54;;;;;;;;;;;;;;;;;;4901725;28;94731;-82
2023/08/20 08:20:20;;;;;;;;;;;;;;;;;;4918964;28;121037;-82
2023/08/20 08:22:47;;;;;;;;;;;;;;;;;;4899665;28;94322;-84
2023/08/20 08:25:14;;;;;;;;;;;;;;;;;;4898815;28;123062;-83
2023/08/20 08:27:40;;;;;;;;;;;;;;;;;;4902370;28;120997;-82
2023/08/20 08:30:23;;;;;;;;;;;;;;;;;;4899479;28;119625;-84
2023/08/20 08:32:50;;;;;;;;;;;;;;;;;;4900119;28;95889;-84
2023/08/20 08:35:17;;;;;;;;;;;;;;;;;;4901079;28;92546;-84
2023/08/20 08:37:43;;;;;;;;;;;;;;;;;;4917383;28;121161;-82
2023/08/20 08:40:09;;;;;;;;;;;;;;;;;;4918337;28;121033;-83
2023/08/20 08:42:36;;;;;;;;;;;;;;;;;;4915942;28;104640;-84
2023/08/20 08:45:02;;;;;;;;;;;;;;;;;;4900695;28;120322;-83
2023/08/20 08:47:29;;;;;;;;;;;;;;;;;;4918128;28;121146;-84
2023/08/20 08:49:56;;;;;;;;;;;;;;;;;;4905018;28;94418;-84
2023/08/20 08:52:22;;;;;;;;;;;;;;;;;;4922499;28;94600;-84
2023/08/20 08:54:49;;;;;;;;;;;;;;;;;;4915438;28;111734;-85
2023/08/20 08:57:15;;;;;;;;;;;;;;;;;;4905043;28;93942;-85
2023/08/20 08:59:42;;;;;;;;;;;;;;;;;;4917492;28;122062;-84
2023/08/20 09:02:09;;;;;;;;;;;;;;;;;;4887342;28;94176;-85
2023/08/20 09:04:35;;;;;;;;;;;;;;;;;;4911756;28;123153;-84
2023/08/20 09:07:02;;;;;;;;;;;;;;;;;;4890700;28;94901;-85
2023/08/20 09:09:28;;;;;;;;;;;;;;;;;;4907461;28;122094;-84
2023/08/20 09:11:54;;;;;;;;;;;;;;;;;;4905367;28;106630;-84
2023/08/20 09:14:21;;;;;;;;;;;;;;;;;;4919872;28;120915;-84
2023/08/20 09:16:48;;;;;;;;;;;;;;;;;;4921342;28;104959;-85
2023/08/20 09:19:15;;;;;;;;;;;;;;;;;;4899474;28;121684;-84
2023/08/20 09:21:41;;;;;;;;;;;;;;;;;;4911743;28;101690;-84
2023/08/20 09:24:08;;;;;;;;;;;;;;;;;;4925689;28;122721;-84
2023/08/20 09:26:34;;;;;;;;;;;;;;;;;;4915625;28;92316;-84
2023/08/20 09:29:00;;;;;;;;;;;;;;;;;;4909262;28;121550;-84
2023/08/20 09:31:27;;;;;;;;;;;;;;;;;;4913207;28;94646;-84
2023/08/20 09:33:53;;;;;;;;;;;;;;;;;;4899230;28;108517;-83
2023/08/20 09:36:20;;;;;;;;;;;;;;;;;;4899241;28;95997;-83
2023/08/20 09:38:47;;;;;;;;;;;;;;;;;;4916490;28;109419;-83
2023/08/20 09:41:15;;;;;;;;;;;;;;;;;;4918522;28;122005;-83
2023/08/20 09:43:42;;;;;;;;;;;;;;;;;;4906592;28;120364;-84
2023/08/20 09:46:08;;;;;;;;;;;;;;;;;;4886240;28;95705;-85
2023/08/20 09:48:36;;;;;;;;;;;;;;;;;;4924537;28;92096;-83
2023/08/20 09:51:03;;;;;;;;;;;;;;;;;;4924133;28;96220;-83
2023/08/20 09:53:29;;;;;;;;;;;;;;;;;;4905575;28;120273;-85
2023/08/20 09:55:55;;;;;;;;;;;;;;;;;;4890326;28;120879;-84
2023/08/20 09:58:25;;;;;;;;;;;;;;;;;;4901518;28;96034;-84
2023/08/20 10:00:51;;;;;;;;;;;;;;;;;;4914680;28;122153;-83
2023/08/20 10:03:18;;;;;;;;;;;;;;;;;;4896047;28;121971;-84
2023/08/20 10:05:44;;;;;;;;;;;;;;;;;;4915362;28;92298;-84
2023/08/20 10:08:11;;;;;;;;;;;;;;;;;;4908568;28;92151;-84
2023/08/20 10:10:37;;;;;;;;;;;;;;;;;;4896655;28;122623;-85
2023/08/20 10:13:04;;;;;;;;;;;;;;;;;;4904437;28;92488;-85
2023/08/20 10:15:31;;;;;;;;;;;;;;;;;;4874782;28;120259;-84
2023/08/20 10:17:57;;;;;;;;;;;;;;;;;;4917279;28;94416;-84
2023/08/20 10:20:24;;;;;;;;;;;;;;;;;;4889725;28;120122;-85
2023/08/20 10:22:51;;;;;;;;;;;;;;;;;;4905641;28;123461;-85
2023/08/20 10:25:18;;;;;;;;;;;;;;;;;;4894663;28;115661;-85
2023/08/20 10:27:45;;;;;;;;;;;;;;;;;;4924545;28;121099;-85
2023/08/20 10:30:17;;;;;;;;;;;;;;;;;;4915266;28;121393;-84
2023/08/20 10:32:43;;;;;;;;;;;;;;;;;;4904708;28;100648;-84
2023/08/20 10:35:10;;;;;;;;;;;;;;;;;;4904503;28;120821;-85
2023/08/20 10:37:37;;;;;;;;;;;;;;;;;;4928965;28;119501;-85
2023/08/20 10:40:04;;;;;;;;;;;;;;;;;;4901470;28;98804;-85
2023/08/20 10:42:30;;;;;;;;;;;;;;;;;;4918879;28;120801;-85
2023/08/20 10:44:57;;;;;;;;;;;;;;;;;;4911082;28;95165;-82
2023/08/20 10:47:25;;;;;;;;;;;;;;;;;;4905038;28;121038;-82
2023/08/20 10:49:51;;;;;;;;;;;;;;;;;;4910236;28;120802;-83
2023/08/20 10:52:18;;;;;;;;;;;;;;;;;;4924138;28;122347;-83
2023/08/20 10:54:44;;;;;;;;;;;;;;;;;;4922130;28;115177;-82
2023/08/20 10:57:11;;;;;;;;;;;;;;;;;;4892559;28;92262;-82
2023/08/20 10:59:37;;;;;;;;;;;;;;;;;;4900012;28;122880;-83
2023/08/20 11:02:04;;;;;;;;;;;;;;;;;;4901472;28;104131;-83
2023/08/20 11:04:32;;;;;;;;;;;;;;;;;;4900276;28;121656;-83
2023/08/20 11:06:59;;;;;;;;;;;;;;;;;;4901421;28;114524;-86
2023/08/20 11:09:26;;;;;;;;;;;;;;;;;;4909073;28;94630;-87
2023/08/20 11:11:52;;;;;;;;;;;;;;;;;;4919649;28;115271;-86
2023/08/20 11:14:19;;;;;;;;;;;;;;;;;;4884984;28;119704;-87
2023/08/20 11:16:45;;;;;;;;;;;;;;;;;;4889015;28;103292;-87
2023/08/20 11:19:12;;;;;;;;;;;;;;;;;;4900024;28;121021;-86
2023/08/20 11:21:38;;;;;;;;;;;;;;;;;;4900029;28;113070;-86
2023/08/20 11:24:06;;;;;;;;;;;;;;;;;;4917037;28;120713;-89
2023/08/20 11:26:34;;;;;;;;;;;;;;;;;;4884396;28;105254;-86
2023/08/20 11:29:00;;;;;;;;;;;;;;;;;;4917796;28;92367;-86
2023/08/20 11:31:27;;;;;;;;;;;;;;;;;;4893363;28;125246;-86
2023/08/20 11:33:53;;;;;;;;;;;;;;;;;;4913138;28;94796;-86
2023/08/20 11:36:20;;;;;;;;;;;;;;;;;;4894492;28;125097;-87
2023/08/20 11:38:46;;;;;;;;;;;;;;;;;;4917214;28;92253;-87
2023/08/20 11:41:13;;;;;;;;;;;;;;;;;;4898972;28;122778;-87
2023/08/20 11:43:39;;;;;;;;;;;;;;;;;;4900970;28;92793;-87
2023/08/20 11:46:06;;;;;;;;;;;;;;;;;;4917642;28;92406;-85
2023/08/20 11:48:36;;;;;;;;;;;;;;;;;;4884130;28;95195;-87
2023/08/20 11:51:03;;;;;;;;;;;;;;;;;;4885322;28;124764;-87
2023/08/20 11:53:30;;;;;;;;;;;;;;;;;;4909747;28;92278;-86
2023/08/20 11:55:56;;;;;;;;;;;;;;;;;;4909421;28;122016;-87
2023/08/20 11:58:22;;;;;;;;;;;;;;;;;;4895550;28;122646;-87
2023/08/20 12:00:52;;;;;;;;;;;;;;;;;;4917921;28;93681;-87
2023/08/20 12:03:19;;;;;;;;;;;;;;;;;;4912264;28;92538;-87
2023/08/20 12:05:46;;;;;;;;;;;;;;;;;;4900374;28;103140;-87
2023/08/20 12:08:12;;;;;;;;;;;;;;;;;;4894468;28;92504;-86
2023/08/20 12:10:39;;;;;;;;;;;;;;;;;;4893604;28;121580;-87
2023/08/20 12:13:05;;;;;;;;;;;;;;;;;;4899381;28;121432;-86
2023/08/20 12:15:32;;;;;;;;;;;;;;;;;;4914469;28;111841;-86
2023/08/20 12:17:58;;;;;;;;;;;;;;;;;;4903567;28;92851;-85
2023/08/20 12:20:25;;;;;;;;;;;;;;;;;;4898214;28;121685;-87
2023/08/20 12:22:51;;;;;;;;;;;;;;;;;;4898175;28;96904;-86
2023/08/20 12:25:17;;;;;;;;;;;;;;;;;;4871792;28;122827;-86
2023/08/20 12:27:44;;;;;;;;;;;;;;;;;;4912401;28;100917;-85
2023/08/20 12:30:10;;;;;;;;;;;;;;;;;;4884429;28;104558;-85
2023/08/20 12:32:37;;;;;;;;;;;;;;;;;;4891473;28;119446;-81
2023/08/20 12:35:03;;;;;;;;;;;;;;;;;;4912543;28;92302;-82
2023/08/20 12:37:30;;;;;;;;;;;;;;;;;;4897378;28;122783;-81
2023/08/20 12:39:56;;;;;;;;;;;;;;;;;;4894447;28;123042;-81
2023/08/20 12:42:23;;;;;;;;;;;;;;;;;;4912116;28;93172;-80
2023/08/20 12:44:49;;;;;;;;;;;;;;;;;;4893083;28;119805;-80
2023/08/20 12:47:15;;;;;;;;;;;;;;;;;;4898717;28;123351;-80
2023/08/20 12:49:42;;;;;;;;;;;;;;;;;;4896729;28;124951;-80
2023/08/20 12:52:08;;;;;;;;;;;;;;;;;;4917229;28;121136;-80
2023/08/20 12:54:35;;;;;;;;;;;;;;;;;;4891740;28;117502;-80
2023/08/20 12:57:01;;;;;;;;;;;;;;;;;;4892855;28;122490;-80
2023/08/20 12:59:27;;;;;;;;;;;;;;;;;;4904441;28;95631;-80
2023/08/20 13:01:54;;;;;;;;;;;;;;;;;;4915790;28;122370;-80
2023/08/20 13:04:20;;;;;;;;;;;;;;;;;;4917901;28;121140;-80
2023/08/20 13:06:47;;;;;;;;;;;;;;;;;;4916908;28;119979;-80
2023/08/20 13:09:15;;;;;;;;;;;;;;;;;;4927134;28;103626;-81
2023/08/20 13:11:41;;;;;;;;;;;;;;;;;;4915928;28;122371;-80
2023/08/20 13:14:07;;;;;;;;;;;;;;;;;;4915668;28;121299;-80
2023/08/20 13:16:34;;;;;;;;;;;;;;;;;;4906366;28;122646;-80
2023/08/20 13:19:00;;;;;;;;;;;;;;;;;;4899642;28;121177;-80
2023/08/20 13:21:27;;;;;;;;;;;;;;;;;;4920559;28;110959;-81
2023/08/20 13:23:53;;;;;;;;;;;;;;;;;;4917897;28;121083;-80
2023/08/20 13:26:22;;;;;;;;;;;;;;;;;;4918418;28;115208;-80
2023/08/20 13:28:48;;;;;;;;;;;;;;;;;;4901964;28;121903;-81
2023/08/20 13:31:15;;;;;;;;;;;;;;;;;;4887174;28;121993;-80
2023/08/20 13:33:41;;;;;;;;;;;;;;;;;;4901558;28;93619;-81
2023/08/20 13:36:08;;;;;;;;;;;;;;;;;;4901989;28;123392;-80
2023/08/20 13:38:35;;;;;;;;;;;;;;;;;;4923024;28;101803;-80
2023/08/20 13:41:01;;;;;;;;;;;;;;;;;;4904877;28;124401;-80
2023/08/20 13:43:28;;;;;;;;;;;;;;;;;;4924602;28;122585;-80
2023/08/20 13:45:54;;;;;;;;;;;;;;;;;;4913687;28;104131;-80
2023/08/20 13:48:20;;;;;;;;;;;;;;;;;;4910026;28;121311;-80
2023/08/20 13:50:47;;;;;;;;;;;;;;;;;;4920786;28;92785;-80
2023/08/20 13:53:14;;;;;;;;;;;;;;;;;;4903086;28;120071;-81
2023/08/20 13:55:40;;;;;;;;;;;;;;;;;;4903361;28;122350;-81
2023/08/20 13:58:07;;;;;;;;;;;;;;;;;;4900555;28;97662;-81
2023/08/20 14:00:35;;;;;;;;;;;;;;;;;;4920648;28;99663;-81
2023/08/20 14:03:02;;;;;;;;;;;;;;;;;;4898287;28;122607;-81
2023/08/20 14:05:29;;;;;;;;;;;;;;;;;;4922861;28;122461;-81
2023/08/20 14:07:55;;;;;;;;;;;;;;;;;;4902868;28;103949;-81
2023/08/20 14:10:21;;;;;;;;;;;;;;;;;;4898415;28;115169;-81
2023/08/20 14:12:48;;;;;;;;;;;;;;;;;;4892979;28;92646;-81
2023/08/20 14:15:14;;;;;;;;;;;;;;;;;;4898046;28;120681;-81
2023/08/20 14:17:41;;;;;;;;;;;;;;;;;;4921539;28;121139;-81
2023/08/20 14:20:08;;;;;;;;;;;;;;;;;;4893552;28;120260;-81
2023/08/20 14:22:34;;;;;;;;;;;;;;;;;;4891643;28;96912;-82
2023/08/20 14:25:02;;;;;;;;;;;;;;;;;;4907385;28;94073;-81
2023/08/20 14:27:29;;;;;;;;;;;;;;;;;;4901848;28;121204;-81
2023/08/20 14:29:55;;;;;;;;;;;;;;;;;;4920118;28;102127;-82
2023/08/20 14:32:22;;;;;;;;;;;;;;;;;;4901254;28;121221;-81
2023/08/20 14:34:49;;;;;;;;;;;;;;;;;;4921057;28;107338;-81
2023/08/20 14:37:15;;;;;;;;;;;;;;;;;;4922928;28;99577;-81
2023/08/20 14:39:42;;;;;;;;;;;;;;;;;;4892725;28;105418;-81
2023/08/20 14:42:08;;;;;;;;;;;;;;;;;;4907651;28;91996;-81
2023/08/20 14:44:34;;;;;;;;;;;;;;;;;;4921439;28;121672;-81
2023/08/20 14:47:01;;;;;;;;;;;;;;;;;;4923736;28;120987;-82
2023/08/20 14:49:29;;;;;;;;;;;;;;;;;;4920188;28;94704;-81
2023/08/20 14:51:55;;;;;;;;;;;;;;;;;;4910098;28;122924;-81
2023/08/20 14:54:35;;;;;;;;;;;;;;;;;;4906685;28;114461;-81
2023/08/20 14:57:02;;;;;;;;;;;;;;;;;;4898286;28;122467;-82
2023/08/20 14:59:28;;;;;;;;;;;;;;;;;;4918693;28;92395;-82
2023/08/20 15:01:55;;;;;;;;;;;;;;;;;;4903945;28;122830;-85
2023/08/20 15:04:22;;;;;;;;;;;;;;;;;;4901587;28;92463;-86
2023/08/20 15:06:49;;;;;;;;;;;;;;;;;;4901005;28;92793;-86
2023/08/20 15:09:15;;;;;;;;;;;;;;;;;;4915034;28;104441;-85
2023/08/20 15:11:42;;;;;;;;;;;;;;;;;;4915041;28;92174;-86
2023/08/20 15:14:09;;;;;;;;;;;;;;;;;;4890235;28;124181;-85
2023/08/20 15:16:35;;;;;;;;;;;;;;;;;;4912376;28;95002;-85
2023/08/20 15:19:02;;;;;;;;;;;;;;;;;;4918055;28;97844;-85
2023/08/20 15:21:29;;;;;;;;;;;;;;;;;;4891863;28;120875;-85
2023/08/20 15:23:55;;;;;;;;;;;;;;;;;;4912919;28;101144;-85
2023/08/20 15:26:21;;;;;;;;;;;;;;;;;;4899613;28;122086;-85
2023/08/20 15:28:49;;;;;;;;;;;;;;;;;;4917650;28;117500;-85
2023/08/20 15:31:15;;;;;;;;;;;;;;;;;;4890228;28;95187;-85
2023/08/20 15:33:42;;;;;;;;;;;;;;;;;;4901173;28;93257;-84
2023/08/20 15:36:08;;;;;;;;;;;;;;;;;;4917748;28;120363;-84
2023/08/20 15:38:35;;;;;;;;;;;;;;;;;;4908280;28;102278;-84
2023/08/20 15:41:01;;;;;;;;;;;;;;;;;;4897493;28;92405;-84
2023/08/20 15:43:28;;;;;;;;;;;;;;;;;;4894095;28;121133;-84
2023/08/20 15:45:54;;;;;;;;;;;;;;;;;;4902703;28;93485;-84
2023/08/20 15:48:21;;;;;;;;;;;;;;;;;;4884697;28;121819;-83
2023/08/20 15:50:47;;;;;;;;;;;;;;;;;;4904750;28;122870;-84
2023/08/20 15:53:13;;;;;;;;;;;;;;;;;;4927395;28;116303;-85
2023/08/20 15:55:40;;;;;;;;;;;;;;;;;;4921910;28;117241;-84
2023/08/20 15:58:07;;;;;;;;;;;;;;;;;;4896880;28;121088;-84
2023/08/20 16:00:35;;;;;;;;;;;;;;;;;;4892162;28;96403;-84
2023/08/20 16:03:01;;;;;;;;;;;;;;;;;;4886212;28;100219;-84
2023/08/20 16:05:28;;;;;;;;;;;;;;;;;;4883538;28;125405;-84
2023/08/20 16:07:55;;;;;;;;;;;;;;;;;;4887795;28;124648;-84
2023/08/20 16:10:21;;;;;;;;;;;;;;;;;;4914886;28;121422;-84
2023/08/20 16:12:47;;;;;;;;;;;;;;;;;;4899439;28;119761;-84
2023/08/20 16:15:14;;;;;;;;;;;;;;;;;;4920024;28;94076;-84
2023/08/20 16:17:41;;;;;;;;;;;;;;;;;;4899229;28;120790;-84
2023/08/20 16:20:08;;;;;;;;;;;;;;;;;;4900361;28;101156;-84
2023/08/20 16:22:34;;;;;;;;;;;;;;;;;;4915962;28;121421;-84
2023/08/20 16:25:03;;;;;;;;;;;;;;;;;;4916960;28;101854;-84
2023/08/20 16:27:30;;;;;;;;;;;;;;;;;;4914480;28;123632;-85
2023/08/20 16:29:56;;;;;;;;;;;;;;;;;;4914552;28;122365;-84